createdAt,value
2022-10-13T00:01:25.671Z,8.97
2022-10-13T00:03:54.855Z,8.95
2022-10-13T00:06:26.058Z,8.90
2022-10-13T00:08:56.619Z,8.85
2022-10-13T00:11:27.329Z,8.82
2022-10-13T00:13:57.303Z,8.77
2022-10-13T00:16:26.188Z,8.76
2022-10-13T00:18:54.721Z,8.70
2022-10-13T00:21:25.082Z,8.69
2022-10-13T00:23:54.658Z,8.64
2022-10-13T00:26:26.132Z,8.62
2022-10-13T00:28:55.607Z,8.53
2022-10-13T00:31:26.507Z,8.48
2022-10-13T00:33:55.433Z,8.39
2022-10-13T00:36:26.149Z,8.40
2022-10-13T00:38:55.406Z,8.39
2022-10-13T00:41:25.306Z,8.36
2022-10-13T00:44:00.213Z,8.22
2022-10-13T00:46:30.661Z,8.20
2022-10-13T00:49:03.119Z,8.20
2022-10-13T00:51:34.680Z,8.15
2022-10-13T00:54:06.490Z,8.09
2022-10-13T00:56:38.844Z,8.07
2022-10-13T00:59:14.362Z,8.05
2022-10-13T01:01:42.864Z,8.03
2022-10-13T01:04:13.456Z,8.00
2022-10-13T01:06:42.465Z,7.93
2022-10-13T01:09:14.822Z,7.92
2022-10-13T01:11:57.160Z,7.92
2022-10-13T01:14:28.989Z,7.89
2022-10-13T01:17:06.939Z,7.88
2022-10-13T01:20:05.691Z,7.82
2022-10-13T01:22:46.377Z,7.80
2022-10-13T01:25:40.605Z,7.79
2022-10-13T01:28:30.721Z,7.78
2022-10-13T01:31:07.854Z,7.73
2022-10-13T01:33:43.335Z,7.71
2022-10-13T01:36:22.595Z,7.71
2022-10-13T01:38:57.064Z,7.70
2022-10-13T01:41:32.763Z,7.73
2022-10-13T01:44:06.743Z,7.72
2022-10-13T01:46:39.796Z,7.70
2022-10-13T01:49:11.455Z,7.70
2022-10-13T01:51:41.859Z,7.70
2022-10-13T01:54:10.545Z,7.66
2022-10-13T01:56:39.081Z,7.63
2022-10-13T01:59:10.989Z,7.60
2022-10-13T02:01:55.733Z,7.57
2022-10-13T02:04:32.234Z,7.55
2022-10-13T02:07:09.981Z,7.54
2022-10-13T02:09:45.725Z,7.50
2022-10-13T02:12:20.190Z,7.46
2022-10-13T02:14:50.568Z,7.46
2022-10-13T02:17:20.978Z,7.43
2022-10-13T02:19:49.841Z,7.42
2022-10-13T02:22:19.404Z,7.39
2022-10-13T02:24:48.293Z,7.39
2022-10-13T02:27:18.815Z,7.35
2022-10-13T02:29:52.328Z,7.31
2022-10-13T02:32:22.496Z,7.29
2022-10-13T02:34:51.596Z,7.26
2022-10-13T02:37:20.026Z,7.20
2022-10-13T02:39:48.631Z,7.29
2022-10-13T02:42:19.219Z,7.34
2022-10-13T02:44:47.900Z,7.32
2022-10-13T02:47:16.293Z,7.32
2022-10-13T02:49:46.181Z,7.34
2022-10-13T02:52:14.602Z,7.34
2022-10-13T02:54:43.696Z,7.32
2022-10-13T02:57:12.105Z,7.31
2022-10-13T02:59:42.904Z,7.31
2022-10-13T03:02:11.467Z,7.37
2022-10-13T03:04:40.165Z,7.35
2022-10-13T03:07:09.989Z,7.41
2022-10-13T03:09:38.440Z,7.50
2022-10-13T03:12:07.541Z,7.52
2022-10-13T03:14:37.106Z,7.57
2022-10-13T03:17:08.734Z,7.59
2022-10-13T03:19:39.824Z,7.67
2022-10-13T03:22:10.093Z,7.67
2022-10-13T03:24:38.525Z,7.73
2022-10-13T03:27:07.900Z,7.80
2022-10-13T03:29:36.355Z,7.87
2022-10-13T03:32:05.127Z,7.93
2022-10-13T03:34:33.813Z,7.95
2022-10-13T03:37:02.349Z,8.01
2022-10-13T03:39:36.773Z,8.06
2022-10-13T03:42:05.346Z,8.09
2022-10-13T03:44:34.186Z,8.17
2022-10-13T03:47:02.652Z,8.22
2022-10-13T03:49:31.108Z,8.24
2022-10-13T03:51:59.561Z,8.25
2022-10-13T03:54:27.961Z,8.28
2022-10-13T03:56:57.724Z,8.35
2022-10-13T03:59:26.173Z,8.38
2022-10-13T04:01:54.696Z,8.47
2022-10-13T04:04:23.187Z,8.50
2022-10-13T04:06:56.674Z,8.55
2022-10-13T04:09:25.119Z,8.60
2022-10-13T04:11:54.828Z,8.61
2022-10-13T04:14:24.630Z,8.61
2022-10-13T04:16:53.028Z,8.62
2022-10-13T04:19:21.525Z,8.64
2022-10-13T04:21:49.985Z,8.60
2022-10-13T04:24:18.930Z,8.61
2022-10-13T04:26:47.387Z,8.63
2022-10-13T04:29:15.821Z,8.68
2022-10-13T04:31:45.599Z,8.68
2022-10-13T04:34:14.039Z,8.72
2022-10-13T04:36:42.467Z,8.73
2022-10-13T04:39:10.886Z,8.75
2022-10-13T04:41:39.658Z,8.80
2022-10-13T04:44:08.056Z,8.88
2022-10-13T04:46:36.510Z,8.89
2022-10-13T04:49:06.388Z,8.92
2022-10-13T04:51:36.138Z,8.93
2022-10-13T04:54:05.555Z,9.00
2022-10-13T04:56:34.470Z,9.04
2022-10-13T04:59:05.776Z,9.05
2022-10-13T05:01:35.926Z,9.29
2022-10-13T05:04:10.232Z,9.30
2022-10-13T05:07:05.259Z,9.31
2022-10-13T05:09:30.322Z,9.32
2022-10-13T05:11:58.790Z,9.36
2022-10-13T05:14:27.342Z,9.40
2022-10-13T05:16:55.833Z,9.42
2022-10-13T05:19:25.629Z,9.44
2022-10-13T05:21:54.064Z,9.50
2022-10-13T05:24:31.111Z,9.56
2022-10-13T05:26:59.626Z,9.64
2022-10-13T05:29:28.320Z,9.73
2022-10-13T05:31:56.798Z,9.71
2022-10-13T05:34:26.770Z,9.78
2022-10-13T05:36:55.243Z,9.84
2022-10-13T05:39:23.663Z,9.85
2022-10-13T05:41:52.105Z,9.90
2022-10-13T05:44:24.220Z,9.97
2022-10-13T05:46:55.363Z,9.99
2022-10-13T05:49:23.871Z,10.01
2022-10-13T05:51:56.925Z,10.07
2022-10-13T05:54:31.162Z,10.12
2022-10-13T05:57:03.743Z,10.18
2022-10-13T05:59:36.245Z,10.25
2022-10-13T06:02:08.144Z,10.26
2022-10-13T06:04:40.719Z,10.32
2022-10-13T06:07:10.770Z,10.32
2022-10-13T06:09:41.147Z,10.34
2022-10-13T06:12:10.768Z,10.38
2022-10-13T06:14:39.231Z,10.41
2022-10-13T06:17:08.646Z,10.48
2022-10-13T06:19:37.080Z,10.53
2022-10-13T06:22:10.390Z,10.60
2022-10-13T06:24:38.832Z,10.67
2022-10-13T06:27:10.903Z,10.75
2022-10-13T06:29:39.631Z,10.83
2022-10-13T06:32:08.244Z,10.90
2022-10-13T06:34:36.665Z,10.94
2022-10-13T06:37:05.136Z,11.00
2022-10-13T06:39:35.233Z,11.08
2022-10-13T06:42:05.484Z,11.06
2022-10-13T06:44:39.538Z,11.14
2022-10-13T06:47:08.258Z,11.19
2022-10-13T06:49:36.744Z,11.27
2022-10-13T06:52:05.666Z,11.31
2022-10-13T06:54:35.495Z,11.30
2022-10-13T06:57:06.373Z,11.36
2022-10-13T06:59:35.054Z,11.25
2022-10-13T07:02:03.489Z,11.22
2022-10-13T07:04:31.910Z,11.25
2022-10-13T07:07:00.496Z,11.37
2022-10-13T07:09:28.941Z,11.36
2022-10-13T07:11:58.832Z,11.46
2022-10-13T07:14:27.888Z,11.55
2022-10-13T07:16:56.448Z,11.54
2022-10-13T07:19:24.881Z,11.63
2022-10-13T07:21:53.786Z,11.81
2022-10-13T07:24:25.604Z,11.93
2022-10-13T07:26:54.110Z,12.05
2022-10-13T07:29:23.882Z,12.21
2022-10-13T07:31:52.201Z,12.37
2022-10-13T07:34:20.480Z,12.50
2022-10-13T07:36:48.946Z,12.54
2022-10-13T07:39:17.333Z,12.67
2022-10-13T07:41:50.786Z,12.64
2022-10-13T07:44:19.794Z,12.77
2022-10-13T07:46:49.636Z,13.02
2022-10-13T07:49:17.882Z,13.08
2022-10-13T07:51:46.336Z,13.12
2022-10-13T07:54:21.461Z,13.25
2022-10-13T07:56:52.435Z,13.27
2022-10-13T07:59:20.899Z,13.35
2022-10-13T08:01:50.780Z,13.25
2022-10-13T08:04:19.484Z,13.26
2022-10-13T08:06:47.974Z,13.11
2022-10-13T08:09:16.569Z,13.30
2022-10-13T08:11:45.018Z,13.38
2022-10-13T08:14:14.357Z,13.47
2022-10-13T08:16:48.577Z,13.53
2022-10-13T08:19:22.087Z,13.51
2022-10-13T08:21:59.605Z,13.43
2022-10-13T08:24:29.433Z,13.58
2022-10-13T08:26:57.874Z,13.64
2022-10-13T08:29:26.399Z,13.68
2022-10-13T08:31:55.729Z,13.98
2022-10-13T08:34:26.217Z,14.30
2022-10-13T08:36:56.575Z,14.61
2022-10-13T08:39:26.133Z,15.15
2022-10-13T08:41:57.265Z,15.18
2022-10-13T08:45:06.390Z,15.72
2022-10-13T08:47:34.840Z,15.90
2022-10-13T08:50:12.622Z,15.89
2022-10-13T08:52:48.176Z,15.42
2022-10-13T08:55:28.987Z,15.48
2022-10-13T08:57:57.867Z,15.49
2022-10-13T09:00:29.760Z,15.45
2022-10-13T09:03:09.377Z,15.21
2022-10-13T09:05:47.944Z,15.24
2022-10-13T09:08:21.840Z,15.28
2022-10-13T09:10:51.877Z,15.27
2022-10-13T09:13:21.245Z,15.26
2022-10-13T09:15:51.318Z,15.15
2022-10-13T09:18:20.045Z,15.20
2022-10-13T09:20:49.838Z,15.04
2022-10-13T09:23:21.282Z,15.19
2022-10-13T09:25:52.152Z,15.34
2022-10-13T09:28:23.471Z,15.39
2022-10-13T09:31:02.976Z,15.55
2022-10-13T09:33:35.988Z,15.65
2022-10-13T09:36:14.608Z,15.87
2022-10-13T09:38:45.917Z,16.01
2022-10-13T09:41:18.643Z,15.89
2022-10-13T09:44:01.203Z,16.08
2022-10-13T09:46:33.473Z,16.17
2022-10-13T09:49:05.968Z,16.23
2022-10-13T09:51:39.473Z,16.18
2022-10-13T09:54:27.902Z,16.33
2022-10-13T09:57:00.507Z,16.67
2022-10-13T09:59:34.262Z,16.71
2022-10-13T10:02:17.569Z,16.82
2022-10-13T10:04:48.166Z,16.78
2022-10-13T10:07:22.993Z,17.01
2022-10-13T10:09:55.412Z,16.92
2022-10-13T10:12:28.390Z,16.90
2022-10-13T10:14:56.868Z,16.78
2022-10-13T10:17:31.885Z,16.72
2022-10-13T10:20:24.269Z,16.67
2022-10-13T10:23:05.956Z,16.82
2022-10-13T10:25:39.127Z,16.88
2022-10-13T10:28:45.187Z,16.89
2022-10-13T10:31:27.348Z,17.00
2022-10-13T10:34:04.239Z,17.13
2022-10-13T10:36:41.368Z,17.29
2022-10-13T10:39:24.516Z,17.31
2022-10-13T10:42:00.888Z,17.43
2022-10-13T10:44:34.022Z,17.55
2022-10-13T10:47:06.455Z,17.78
2022-10-13T10:49:39.280Z,17.65
2022-10-13T10:52:11.395Z,17.33
2022-10-13T10:55:04.802Z,17.80
2022-10-13T10:57:40.521Z,17.63
2022-10-13T11:00:15.112Z,17.67
2022-10-13T11:02:57.529Z,17.87
2022-10-13T11:05:26.073Z,17.68
2022-10-13T11:08:00.042Z,17.52
2022-10-13T11:10:30.488Z,17.62
2022-10-13T11:13:23.082Z,17.60
2022-10-13T11:15:51.541Z,17.73
2022-10-13T11:18:59.129Z,17.79
2022-10-13T11:22:13.295Z,17.90
2022-10-13T11:24:51.681Z,18.05
2022-10-13T11:27:26.602Z,18.11
2022-10-13T11:29:58.819Z,17.76
2022-10-13T11:32:55.424Z,17.99
2022-10-13T11:35:29.707Z,18.05
2022-10-13T11:38:18.034Z,18.00
2022-10-13T11:41:06.360Z,18.06
2022-10-13T11:43:53.947Z,18.10
2022-10-13T11:46:28.093Z,18.00
2022-10-13T11:49:19.482Z,17.79
2022-10-13T11:52:05.381Z,17.82
2022-10-13T11:54:40.217Z,17.72
2022-10-13T11:57:20.387Z,17.81
2022-10-13T11:59:55.182Z,17.95
2022-10-13T12:02:30.173Z,18.04
2022-10-13T12:05:03.630Z,18.08
2022-10-13T12:07:35.939Z,18.07
2022-10-13T12:10:08.054Z,18.12
2022-10-13T12:12:36.690Z,18.06
2022-10-13T12:15:35.124Z,18.12
2022-10-13T12:18:04.637Z,18.06
2022-10-13T12:20:33.959Z,17.78
2022-10-13T12:23:02.349Z,18.04
2022-10-13T12:25:31.300Z,17.81
2022-10-13T12:28:01.218Z,18.01
2022-10-13T12:30:31.581Z,18.26
2022-10-13T12:33:01.637Z,18.04
2022-10-13T12:35:32.172Z,18.15
2022-10-13T12:38:03.984Z,18.26
2022-10-13T12:40:36.116Z,18.39
2022-10-13T12:43:05.223Z,18.22
2022-10-13T12:45:35.426Z,17.67
2022-10-13T12:48:05.561Z,17.72
2022-10-13T12:50:38.987Z,17.94
2022-10-13T12:53:17.506Z,18.15
2022-10-13T12:55:52.472Z,18.14
2022-10-13T12:58:25.139Z,17.80
2022-10-13T13:01:08.738Z,17.68
2022-10-13T13:03:40.756Z,17.80
2022-10-13T13:06:24.146Z,18.02
2022-10-13T13:09:08.365Z,18.12
2022-10-13T13:11:39.431Z,18.21
2022-10-13T13:14:24.410Z,18.26
2022-10-13T13:17:09.241Z,18.40
2022-10-13T13:19:40.214Z,18.40
2022-10-13T13:22:11.667Z,18.47
2022-10-13T13:24:40.931Z,18.60
2022-10-13T13:27:28.365Z,18.73
2022-10-13T13:29:56.849Z,18.82
2022-10-13T13:32:27.688Z,18.56
2022-10-13T13:34:57.540Z,18.70
2022-10-13T13:37:32.100Z,18.79
2022-10-13T13:40:01.039Z,18.76
2022-10-13T13:42:30.030Z,18.87
2022-10-13T13:44:58.652Z,18.99
2022-10-13T13:47:28.982Z,19.04
2022-10-13T13:50:00.286Z,18.94
2022-10-13T13:52:28.752Z,19.04
2022-10-13T13:54:57.257Z,19.12
2022-10-13T13:57:25.701Z,19.17
2022-10-13T13:59:54.165Z,19.04
2022-10-13T14:02:23.101Z,19.15
2022-10-13T14:04:53.224Z,19.08
2022-10-13T14:07:23.566Z,19.18
2022-10-13T14:09:53.801Z,19.24
2022-10-13T14:12:24.094Z,19.22
2022-10-13T14:14:52.730Z,19.26
2022-10-13T14:17:23.686Z,19.04
2022-10-13T14:19:52.224Z,19.13
2022-10-13T14:22:25.320Z,19.26
2022-10-13T14:24:54.015Z,19.31
2022-10-13T14:27:22.815Z,18.94
2022-10-13T14:29:51.272Z,18.76
2022-10-13T14:32:20.835Z,18.77
2022-10-13T14:34:49.515Z,18.91
2022-10-13T14:37:22.135Z,18.99
2022-10-13T14:39:52.971Z,18.68
2022-10-13T14:42:21.581Z,18.86
2022-10-13T14:44:50.209Z,18.55
2022-10-13T14:47:18.913Z,18.80
2022-10-13T14:49:47.657Z,18.72
2022-10-13T14:52:16.110Z,18.82
2022-10-13T14:54:45.186Z,18.75
2022-10-13T14:57:15.972Z,18.73
2022-10-13T14:59:45.079Z,18.45
2022-10-13T15:02:14.011Z,18.54
2022-10-13T15:04:52.994Z,18.36
2022-10-13T15:07:21.663Z,18.41
2022-10-13T15:10:04.795Z,18.36
2022-10-13T15:12:35.890Z,18.31
2022-10-13T15:15:05.883Z,18.36
2022-10-13T15:17:34.512Z,18.25
2022-10-13T15:20:03.741Z,18.25
2022-10-13T15:22:32.404Z,18.16
2022-10-13T15:25:01.030Z,17.96
2022-10-13T15:27:29.673Z,17.92
2022-10-13T15:29:59.457Z,17.82
2022-10-13T15:32:27.893Z,17.66
2022-10-13T15:34:56.377Z,17.64
2022-10-13T15:37:24.926Z,17.54
2022-10-13T15:39:57.052Z,17.48
2022-10-13T15:42:26.037Z,17.43
2022-10-13T15:45:09.193Z,17.36
2022-10-13T15:47:40.044Z,17.29
2022-10-13T15:50:10.051Z,17.25
2022-10-13T15:52:39.949Z,17.13
2022-10-13T15:55:09.517Z,17.10
2022-10-13T15:57:37.943Z,17.01
2022-10-13T16:00:08.821Z,16.99
2022-10-13T16:02:45.046Z,16.85
2022-10-13T16:05:14.375Z,16.72
2022-10-13T16:07:43.312Z,16.69
2022-10-13T16:10:13.227Z,16.53
2022-10-13T16:12:48.405Z,16.48
2022-10-13T16:15:18.775Z,16.48
2022-10-13T16:17:48.545Z,16.43
2022-10-13T16:20:17.282Z,16.25
2022-10-13T16:22:45.773Z,16.26
2022-10-13T16:25:14.683Z,16.22
2022-10-13T16:27:44.677Z,16.11
2022-10-13T16:30:14.118Z,15.98
2022-10-13T16:32:43.235Z,15.86
2022-10-13T16:35:13.376Z,15.83
2022-10-13T16:37:41.876Z,15.75
2022-10-13T16:40:11.284Z,15.67
2022-10-13T16:42:39.993Z,15.61
2022-10-13T16:45:09.429Z,15.56
2022-10-13T16:47:37.840Z,15.55
2022-10-13T16:50:09.578Z,15.47
2022-10-13T16:52:39.766Z,15.41
2022-10-13T16:55:09.648Z,15.40
2022-10-13T16:57:38.269Z,15.35
2022-10-13T17:00:08.437Z,15.32
2022-10-13T17:02:37.149Z,15.33
2022-10-13T17:05:06.190Z,15.29
2022-10-13T17:07:34.759Z,15.22
2022-10-13T17:10:05.121Z,15.19
2022-10-13T17:12:33.547Z,15.15
2022-10-13T17:15:02.584Z,15.06
2022-10-13T17:17:31.317Z,15.00
2022-10-13T17:19:59.801Z,15.01
2022-10-13T17:22:28.246Z,15.01
2022-10-13T17:24:56.710Z,14.83
2022-10-13T17:27:26.516Z,14.75
2022-10-13T17:29:56.206Z,14.80
2022-10-13T17:32:24.696Z,14.85
2022-10-13T17:34:53.619Z,14.83
2022-10-13T17:37:22.363Z,14.78
2022-10-13T17:39:51.113Z,14.68
2022-10-13T17:42:19.684Z,14.74
2022-10-13T17:44:50.664Z,14.71
2022-10-13T17:47:19.520Z,14.68
2022-10-13T17:49:48.651Z,14.66
2022-10-13T17:52:17.690Z,14.67
2022-10-13T17:54:48.007Z,14.52
2022-10-13T17:57:16.439Z,14.51
2022-10-13T17:59:46.384Z,14.38
2022-10-13T18:02:24.716Z,14.41
2022-10-13T18:04:55.481Z,14.44
2022-10-13T18:07:24.330Z,14.36
2022-10-13T18:09:54.055Z,14.37
2022-10-13T18:12:22.769Z,14.27
2022-10-13T18:14:51.392Z,14.26
2022-10-13T18:17:21.398Z,14.23
2022-10-13T18:19:50.961Z,14.15
2022-10-13T18:22:19.433Z,14.15
2022-10-13T18:24:47.981Z,14.16
2022-10-13T18:27:16.514Z,14.19
2022-10-13T18:29:44.925Z,14.20
2022-10-13T18:32:13.320Z,14.13
2022-10-13T18:34:43.171Z,14.10
2022-10-13T18:37:11.576Z,14.11
2022-10-13T18:39:40.252Z,14.09
2022-10-13T18:42:09.181Z,14.12
2022-10-13T18:44:37.676Z,14.06
2022-10-13T18:47:06.880Z,14.05
2022-10-13T18:49:35.546Z,14.03
2022-10-13T18:52:05.722Z,14.05
2022-10-13T18:54:38.085Z,14.03
2022-10-13T18:57:06.526Z,13.95
2022-10-13T18:59:38.650Z,13.96
2022-10-13T19:02:07.861Z,13.95
2022-10-13T19:04:36.654Z,13.87
2022-10-13T19:07:07.081Z,13.88
2022-10-13T19:09:35.774Z,13.81
2022-10-13T19:12:05.384Z,13.81
2022-10-13T19:14:33.903Z,13.80
2022-10-13T19:17:02.551Z,13.80
2022-10-13T19:19:31.319Z,13.76
2022-10-13T19:22:02.186Z,13.77
2022-10-13T19:24:32.464Z,13.78
2022-10-13T19:27:00.897Z,13.70
2022-10-13T19:29:30.472Z,13.69
2022-10-13T19:31:58.915Z,13.72
2022-10-13T19:34:27.571Z,13.68
2022-10-13T19:36:59.350Z,13.70
2022-10-13T19:39:29.185Z,13.72
2022-10-13T19:41:58.804Z,13.70
2022-10-13T19:44:27.300Z,13.68
2022-10-13T19:46:56.438Z,13.64
2022-10-13T19:49:26.351Z,13.58
2022-10-13T19:51:55.542Z,13.55
2022-10-13T19:54:24.120Z,13.53
2022-10-13T19:56:53.750Z,13.52
2022-10-13T19:59:24.060Z,13.52
2022-10-13T20:01:52.583Z,13.50
2022-10-13T20:04:21.313Z,13.48
2022-10-13T20:06:50.591Z,13.45
2022-10-13T20:09:19.511Z,13.41
2022-10-13T20:11:49.592Z,13.44
2022-10-13T20:14:18.548Z,13.41
2022-10-13T20:16:49.147Z,13.39
2022-10-13T20:19:19.463Z,13.40
2022-10-13T20:21:51.508Z,13.42
2022-10-13T20:24:20.685Z,13.41
2022-10-13T20:26:49.123Z,13.35
2022-10-13T20:29:21.004Z,13.33
2022-10-13T20:31:50.953Z,13.30
2022-10-13T20:34:19.496Z,13.27
2022-10-13T20:36:50.937Z,13.24
2022-10-13T20:39:19.491Z,13.25
2022-10-13T20:41:48.273Z,13.27
2022-10-13T20:44:16.752Z,13.25
2022-10-13T20:46:45.428Z,13.22
2022-10-13T20:49:15.187Z,13.17
2022-10-13T20:51:43.795Z,13.12
2022-10-13T20:54:14.379Z,13.16
2022-10-13T20:56:43.255Z,13.17
2022-10-13T20:59:14.490Z,13.16
2022-10-13T21:01:43.202Z,13.16
2022-10-13T21:04:12.095Z,13.06
2022-10-13T21:06:42.252Z,13.03
2022-10-13T21:09:11.687Z,13.04
2022-10-13T21:11:44.044Z,13.05
2022-10-13T21:14:13.421Z,13.02
2022-10-13T21:16:41.863Z,12.96
2022-10-13T21:19:10.765Z,13.00
2022-10-13T21:21:39.231Z,12.95
2022-10-13T21:24:09.661Z,12.97
2022-10-13T21:26:38.812Z,12.91
2022-10-13T21:29:07.245Z,12.84
2022-10-13T21:31:36.978Z,12.88
2022-10-13T21:34:05.701Z,12.84
2022-10-13T21:36:34.798Z,12.81
2022-10-13T21:39:05.906Z,12.77
2022-10-13T21:41:35.773Z,12.77
2022-10-13T21:44:04.546Z,12.76
2022-10-13T21:46:35.329Z,12.70
2022-10-13T21:49:06.591Z,12.64
2022-10-13T21:51:37.992Z,12.61
2022-10-13T21:54:09.666Z,12.57
2022-10-13T21:56:40.407Z,12.56
2022-10-13T21:59:11.189Z,12.49
2022-10-13T22:01:39.830Z,12.50
2022-10-13T22:04:14.948Z,12.44
2022-10-13T22:06:43.189Z,12.36
2022-10-13T22:09:12.354Z,12.31
2022-10-13T22:11:42.671Z,12.25
2022-10-13T22:14:13.990Z,12.13
2022-10-13T22:16:44.129Z,12.03
2022-10-13T22:19:12.556Z,11.94
2022-10-13T22:21:43.357Z,11.92
2022-10-13T22:24:14.051Z,11.80
2022-10-13T22:26:45.014Z,11.71
2022-10-13T22:29:17.097Z,11.67
2022-10-13T22:31:47.160Z,11.69
2022-10-13T22:34:16.237Z,11.72
2022-10-13T22:36:45.404Z,11.70
2022-10-13T22:39:15.012Z,11.67
2022-10-13T22:41:45.229Z,11.66
2022-10-13T22:44:14.226Z,11.58
2022-10-13T22:46:42.877Z,11.68
2022-10-13T22:49:14.893Z,11.63
2022-10-13T22:51:43.338Z,11.66
2022-10-13T22:54:11.872Z,11.65
2022-10-13T22:56:41.360Z,11.70
2022-10-13T22:59:12.447Z,11.68
2022-10-13T23:01:41.136Z,11.66
2022-10-13T23:04:09.585Z,11.73
2022-10-13T23:06:38.049Z,11.77
2022-10-13T23:09:09.156Z,11.79
2022-10-13T23:11:38.197Z,11.83
2022-10-13T23:14:07.859Z,11.80
2022-10-13T23:16:37.772Z,11.75
2022-10-13T23:19:06.245Z,11.73
2022-10-13T23:21:34.812Z,11.75
2022-10-13T23:24:05.476Z,11.72
2022-10-13T23:26:35.775Z,11.60
2022-10-13T23:29:05.521Z,11.64
2022-10-13T23:31:33.954Z,11.64
2022-10-13T23:34:03.847Z,11.61
2022-10-13T23:36:33.296Z,11.60
2022-10-13T23:39:03.601Z,11.62
2022-10-13T23:41:32.318Z,11.54
2022-10-13T23:44:00.840Z,11.53
2022-10-13T23:46:29.268Z,11.53
2022-10-13T23:48:57.789Z,11.45
2022-10-13T23:51:27.739Z,11.48
2022-10-13T23:53:56.973Z,11.47
2022-10-13T23:56:25.589Z,11.48
2022-10-13T23:58:54.019Z,11.47
